Time;durP1;ratioP1;P1;durP2;ratioP2;P2;SDS_P1;SDS_P2;PMS_P1;PMS_P2;Temp;Humidity;BMP_temperature;BMP_pressure;BME280_temperature;BME280_humidity;BME280_pressure;Samples;Min_cycle;Max_cycle;Signal;HPM_P1;HPM_P2
2024/04/20 00:01:02;;;;;;;2.33;0.10;;;;;;;3.17;42.91;101272.19;5397784;26;20031;-68
2024/04/20 00:03:28;;;;;;;3.20;0.55;;;;;;;3.17;43.26;101279.09;5387920;26;20010;-68
2024/04/20 00:05:53;;;;;;;4.38;0.20;;;;;;;3.07;42.92;101282.56;5395196;26;20703;-69
2024/04/20 00:08:20;;;;;;;2.85;0.15;;;;;;;3.15;43.15;101276.50;5390367;26;20341;-67
2024/04/20 00:10:45;;;;;;;3.42;0.30;;;;;;;3.07;42.94;101278.28;5387017;26;20080;-68
2024/04/20 00:13:10;;;;;;;2.35;0.10;;;;;;;3.07;42.48;101278.28;5393154;26;20019;-67
2024/04/20 00:15:41;;;;;;;0.38;0.10;;;;;;;3.14;41.96;101285.13;5373755;26;20553;-67
2024/04/20 00:18:07;;;;;;;1.85;0.35;;;;;;;3.05;42.24;101286.91;5383005;26;20014;-67
2024/04/20 00:20:33;;;;;;;1.92;0.10;;;;;;;3.07;42.09;101288.59;5374106;26;20072;-70
2024/04/20 00:22:59;;;;;;;5.70;0.30;;;;;;;3.05;41.63;101281.72;5381389;26;20026;-69
2024/04/20 00:25:27;;;;;;;4.40;0.55;;;;;;;3.00;42.13;101289.44;5379690;26;20618;-70
2024/04/20 00:27:53;;;;;;;0.57;0.25;;;;;;;3.04;42.12;101286.00;5395326;25;20025;-69
2024/04/20 00:30:21;;;;;;;1.60;0.08;;;;;;;3.03;42.81;101297.22;5364136;26;20009;-70
2024/04/20 00:32:47;;;;;;;0.80;0.20;;;;;;;3.04;43.39;101292.91;5391746;26;20003;-69
2024/04/20 00:35:15;;;;;;;0.80;0.17;;;;;;;3.09;42.89;101292.03;5396909;26;20719;-74
2024/04/20 00:37:40;;;;;;;1.13;0.10;;;;;;;3.08;42.93;101295.47;5379956;26;20006;-74
2024/04/20 00:40:06;;;;;;;1.83;0.32;;;;;;;2.83;43.69;101293.81;5362543;26;20008;-75
2024/04/20 00:42:32;;;;;;;5.32;0.20;;;;;;;2.91;43.66;101302.38;5357381;26;20039;-75
2024/04/20 00:44:59;;;;;;;0.90;0.20;;;;;;;3.05;43.60;101300.66;5351626;25;20089;-74
2024/04/20 00:47:25;;;;;;;5.95;0.52;;;;;;;3.08;43.76;101304.94;5358026;26;20235;-75
2024/04/20 00:49:50;;;;;;;0.28;0.10;;;;;;;3.01;44.03;101306.69;5358181;26;20666;-74
2024/04/20 00:52:16;;;;;;;6.28;1.15;;;;;;;2.98;44.12;101309.28;5365449;26;20038;-75
2024/04/20 00:54:42;;;;;;;2.03;0.13;;;;;;;2.94;44.25;101311.00;5389833;26;20021;-73
2024/04/20 00:57:09;;;;;;;0.80;0.10;;;;;;;2.98;44.55;101311.88;5395113;26;20003;-74
2024/04/20 00:59:35;;;;;;;3.35;0.15;;;;;;;2.91;44.52;101315.28;5375113;26;20487;-74
2024/04/20 01:02:01;;;;;;;1.83;0.13;;;;;;;2.80;44.71;101314.44;5398255;26;20002;-70
2024/04/20 01:04:27;;;;;;;0.77;0.30;;;;;;;2.84;45.03;101319.59;5377766;26;20006;-69
2024/04/20 01:06:53;;;;;;;2.92;0.20;;;;;;;2.91;44.98;101320.47;5387045;26;20515;-70
2024/04/20 01:09:19;;;;;;;2.53;0.17;;;;;;;2.90;45.25;101323.91;5379568;26;20351;-70
2024/04/20 01:11:44;;;;;;;3.22;0.20;;;;;;;2.92;45.24;101327.34;5350115;26;21087;-69
2024/04/20 01:14:10;;;;;;;0.40;0.13;;;;;;;2.82;45.27;101328.22;5360922;26;22656;-69
2024/04/20 01:16:36;;;;;;;1.10;0.30;;;;;;;2.86;45.60;101335.09;5351022;26;20021;-70
2024/04/20 01:19:05;;;;;;;2.40;0.10;;;;;;;2.87;45.53;101336.84;5382743;26;20010;-70
2024/04/20 01:21:32;;;;;;;1.50;0.20;;;;;;;2.84;45.60;101340.25;5372554;26;19999;-70
2024/04/20 01:24:06;;;;;;;1.60;0.10;;;;;;;2.87;45.28;101348.03;5394107;25;20020;-70
2024/04/20 01:26:32;;;;;;;6.60;0.35;;;;;;;2.70;45.80;101349.72;5430167;26;20048;-69
2024/04/20 01:28:57;;;;;;;0.57;0.20;;;;;;;2.82;45.71;101354.03;5395773;26;20022;-68
2024/04/20 01:31:23;;;;;;;1.33;0.17;;;;;;;2.81;46.20;101360.06;5378590;26;20011;-70
2024/04/20 01:33:49;;;;;;;2.35;0.13;;;;;;;2.74;46.78;101367.81;5424107;26;20219;-70
2024/04/20 01:36:15;;;;;;;2.30;1.00;;;;;;;2.71;46.71;101362.66;5419969;26;19997;-68
2024/04/20 01:38:40;;;;;;;4.80;0.10;;;;;;;2.80;46.46;101366.06;5407971;26;20029;-68
2024/04/20 01:41:08;;;;;;;3.13;0.10;;;;;;;2.77;46.49;101372.97;5414333;26;20005;-68
2024/04/20 01:43:33;;;;;;;4.45;0.13;;;;;;;2.72;46.47;101377.25;5398436;26;20006;-69
2024/04/20 01:45:59;;;;;;;7.35;0.22;;;;;;;2.78;46.38;101371.25;5373083;26;20017;-69
2024/04/20 01:48:25;;;;;;;1.85;0.13;;;;;;;2.82;46.24;101382.44;5367675;26;20850;-68
2024/04/20 01:50:51;;;;;;;2.25;0.45;;;;;;;2.71;46.13;101378.13;5398584;26;20042;-68
2024/04/20 01:53:19;;;;;;;2.53;0.10;;;;;;;2.74;46.03;101383.28;5372402;26;20025;-70
2024/04/20 01:55:45;;;;;;;2.92;0.20;;;;;;;2.83;45.79;101386.75;5352123;26;20067;-68
2024/04/20 01:58:10;;;;;;;2.78;0.38;;;;;;;2.85;45.79;101383.31;5382361;26;20380;-70
2024/04/20 02:00:36;;;;;;;1.10;0.10;;;;;;;2.87;46.21;101391.06;5398146;26;20319;-69
2024/04/20 02:03:01;;;;;;;2.28;0.20;;;;;;;2.94;46.25;101390.19;5403623;26;20864;-68
2024/04/20 02:05:27;;;;;;;4.97;0.20;;;;;;;2.86;46.46;101397.06;5397657;26;20014;-69
2024/04/20 02:07:52;;;;;;;1.88;0.30;;;;;;;2.94;46.39;101390.19;5402343;25;20303;-68
2024/04/20 02:10:18;;;;;;;1.05;0.15;;;;;;;2.94;46.29;101392.78;5404592;26;20013;-69
2024/04/20 02:12:43;;;;;;;3.05;0.13;;;;;;;2.82;46.59;101395.34;5388851;26;20007;-69
2024/04/20 02:15:08;;;;;;;4.55;0.17;;;;;;;2.81;46.70;101393.63;5338390;26;21059;-69
2024/04/20 02:17:34;;;;;;;3.13;0.30;;;;;;;2.92;46.49;101400.50;5368285;26;20015;-69
2024/04/20 02:20:00;;;;;;;2.92;0.30;;;;;;;2.82;46.77;101401.34;5390776;26;22313;-69
2024/04/20 02:22:26;;;;;;;3.45;0.30;;;;;;;2.89;46.27;101407.38;5407691;26;20031;-69
2024/04/20 02:24:51;;;;;;;1.30;0.10;;;;;;;2.87;46.55;101398.81;5359683;26;20470;-71
2024/04/20 02:27:16;;;;;;;1.27;0.10;;;;;;;2.82;46.51;101408.25;5364045;26;20019;-70
2024/04/20 02:29:42;;;;;;;1.63;0.00;;;;;;;2.87;46.36;101414.28;5385727;26;20023;-70
2024/04/20 02:32:07;;;;;;;3.65;0.10;;;;;;;2.92;46.05;101410.00;5398950;26;20003;-69
2024/04/20 02:34:33;;;;;;;1.40;0.08;;;;;;;2.88;46.68;101422.03;5399920;26;20018;-70
2024/04/20 02:37:09;;;;;;;2.15;0.10;;;;;;;2.93;46.42;101424.59;5381388;26;20010;-69
2024/04/20 02:39:38;;;;;;;0.82;0.30;;;;;;;2.86;46.90;101415.13;5391914;26;20021;-71
2024/04/20 02:42:05;;;;;;;1.85;0.13;;;;;;;2.90;46.89;101416.88;5383479;26;20461;-71
2024/04/20 02:44:31;;;;;;;7.53;0.45;;;;;;;2.90;47.02;101417.72;5385917;26;20015;-73
2024/04/20 02:46:56;;;;;;;1.38;0.20;;;;;;;2.83;47.66;101420.31;5344630;26;20035;-67
2024/04/20 02:49:22;;;;;;;1.23;0.22;;;;;;;2.83;47.49;101425.47;5369512;26;20023;-67
2024/04/20 02:51:48;;;;;;;0.25;0.08;;;;;;;2.84;47.31;101438.38;5378016;26;20015;-68
2024/04/20 02:54:14;;;;;;;0.85;0.10;;;;;;;2.83;47.51;101440.97;5374409;26;20026;-70
2024/04/20 02:56:40;;;;;;;2.65;0.13;;;;;;;2.87;47.31;101455.59;5355710;26;20136;-69
2024/04/20 02:59:06;;;;;;;0.85;0.28;;;;;;;2.91;47.10;101439.22;5311008;26;21591;-71
2024/04/20 03:01:31;;;;;;;2.25;0.20;;;;;;;2.89;47.00;101449.59;5353534;26;20008;-70
2024/04/20 03:03:57;;;;;;;0.65;0.10;;;;;;;2.83;47.47;101448.72;5365265;26;20007;-70
2024/04/20 03:06:23;;;;;;;0.57;0.57;;;;;;;2.98;46.90;101459.06;5411764;26;20002;-70
2024/04/20 03:08:49;;;;;;;1.67;0.20;;;;;;;3.02;46.79;101447.00;5384379;26;20459;-72
2024/04/20 03:11:15;;;;;;;1.55;0.20;;;;;;;3.13;46.60;101455.59;5408289;26;20041;-70
2024/04/20 03:13:40;;;;;;;5.45;0.20;;;;;;;3.11;46.57;101454.75;5379342;26;20011;-70
2024/04/20 03:16:06;;;;;;;1.75;0.10;;;;;;;3.14;46.27;101450.44;5356356;26;20015;-70
2024/04/20 03:18:35;;;;;;;2.33;0.10;;;;;;;3.19;45.92;101453.88;5354885;25;20011;-69
2024/04/20 03:21:05;;;;;;;1.73;0.10;;;;;;;3.24;46.05;101446.13;5359189;26;20011;-71
2024/04/20 03:23:33;;;;;;;2.47;0.10;;;;;;;3.22;45.84;101457.34;5356069;26;20100;-69
2024/04/20 03:25:59;;;;;;;3.63;0.20;;;;;;;3.23;45.69;101461.66;5336890;26;20496;-71
2024/04/20 03:28:24;;;;;;;2.65;0.63;;;;;;;3.27;45.54;101460.78;5361660;26;20011;-71
2024/04/20 03:30:50;;;;;;;4.72;0.30;;;;;;;3.11;45.61;101465.97;5351806;26;21131;-72
2024/04/20 03:33:20;;;;;;;2.72;0.10;;;;;;;3.16;45.91;101468.53;5365357;26;20008;-71
2024/04/20 03:35:45;;;;;;;1.35;0.10;;;;;;;3.03;45.59;101479.72;5358186;26;20010;-70
2024/04/20 03:38:11;;;;;;;3.83;0.22;;;;;;;3.05;45.79;101470.25;5351580;26;20549;-70
2024/04/20 03:40:36;;;;;;;1.20;0.20;;;;;;;2.86;45.66;101471.94;5357045;26;20004;-70
2024/04/20 03:43:01;;;;;;;0.63;0.10;;;;;;;3.01;45.36;101484.88;5368221;26;20027;-70
2024/04/20 03:45:27;;;;;;;0.30;0.00;;;;;;;2.96;45.67;101477.13;5395423;26;20577;-70
2024/04/20 03:47:52;;;;;;;0.38;0.15;;;;;;;2.98;45.76;101482.31;5386061;26;21152;-69
2024/04/20 03:50:19;;;;;;;1.00;0.30;;;;;;;3.02;45.62;101491.75;5394554;26;20469;-71
2024/04/20 03:52:46;;;;;;;4.70;0.10;;;;;;;2.95;45.53;101492.59;5383547;25;20011;-69
2024/04/20 03:55:13;;;;;;;1.20;0.55;;;;;;;3.22;44.65;101489.19;5403286;26;20507;-69
2024/04/20 03:57:39;;;;;;;1.63;0.10;;;;;;;3.25;45.02;101496.06;5398976;25;20017;-69
2024/04/20 04:00:07;;;;;;;5.88;0.15;;;;;;;3.21;44.91;101490.06;5395142;26;19998;-68
2024/04/20 04:02:35;;;;;;;1.10;0.10;;;;;;;3.17;45.34;101496.94;5375074;25;20019;-68
2024/04/20 04:05:00;;;;;;;3.65;0.30;;;;;;;3.20;45.22;101496.06;5397032;26;19998;-69
2024/04/20 04:07:26;;;;;;;4.72;0.10;;;;;;;3.16;45.73;101500.41;5400057;26;20007;-69
2024/04/20 04:09:52;;;;;;;3.08;0.10;;;;;;;3.21;45.80;101515.03;5354567;26;20008;-72
2024/04/20 04:12:18;;;;;;;0.98;0.10;;;;;;;3.22;46.34;101504.69;5348306;26;20019;-73
2024/04/20 04:14:44;;;;;;;0.80;0.10;;;;;;;3.25;46.16;101516.75;5362381;26;20516;-72
2024/04/20 04:17:10;;;;;;;0.52;0.10;;;;;;;3.33;46.44;101513.34;5334743;26;22085;-72
2024/04/20 04:19:35;;;;;;;2.85;0.10;;;;;;;3.43;46.08;101524.56;5353843;26;20040;-70
2024/04/20 04:22:01;;;;;;;1.30;0.10;;;;;;;3.48;46.03;101515.06;5354408;26;20023;-73
2024/04/20 04:24:26;;;;;;;0.63;0.10;;;;;;;3.49;46.23;101521.09;5367654;26;20765;-70
2024/04/20 04:26:53;;;;;;;0.80;0.10;;;;;;;3.49;46.40;101529.75;5357012;26;20051;-70
2024/04/20 04:29:21;;;;;;;4.30;0.17;;;;;;;3.59;46.04;101528.84;5355832;26;20669;-71
2024/04/20 04:31:48;;;;;;;2.63;0.50;;;;;;;3.65;46.32;101525.41;5366748;26;20071;-73
2024/04/20 04:34:13;;;;;;;2.70;0.20;;;;;;;3.73;45.82;101527.97;5353695;26;20949;-70
2024/04/20 04:36:39;;;;;;;2.22;0.45;;;;;;;3.89;45.50;101534.84;5358659;26;20038;-69
2024/04/20 04:39:08;;;;;;;1.17;0.30;;;;;;;3.97;45.54;101538.28;5323685;26;20023;-69
2024/04/20 04:41:33;;;;;;;1.33;0.28;;;;;;;3.94;45.30;101540.00;5371414;26;20058;-69
2024/04/20 04:43:59;;;;;;;7.22;0.20;;;;;;;4.07;45.20;101546.03;5371582;26;20741;-68
2024/04/20 04:46:24;;;;;;;6.32;0.20;;;;;;;4.07;44.96;101548.63;5404971;26;19999;-69
2024/04/20 04:48:50;;;;;;;0.60;0.10;;;;;;;4.07;44.96;101553.78;5394838;26;20023;-67
2024/04/20 04:51:15;;;;;;;4.55;0.10;;;;;;;4.09;45.09;101552.94;5397327;26;20140;-70
2024/04/20 04:53:41;;;;;;;3.78;0.10;;;;;;;4.11;45.40;101558.97;5376759;26;20006;-70
2024/04/20 04:56:07;;;;;;;1.00;0.10;;;;;;;4.08;45.38;101561.56;5391509;26;20007;-71
2024/04/20 04:58:32;;;;;;;2.70;0.20;;;;;;;4.06;45.10;101577.97;5384064;26;20890;-72
2024/04/20 05:00:58;;;;;;;3.17;0.20;;;;;;;4.18;45.08;101567.56;5345841;26;20011;-72
2024/04/20 05:03:26;;;;;;;4.07;0.20;;;;;;;4.28;45.18;101571.88;5364847;26;20295;-73
2024/04/20 05:05:51;;;;;;;2.30;0.10;;;;;;;4.15;45.53;101580.53;5360278;26;20105;-72
2024/04/20 05:08:16;;;;;;;2.30;0.25;;;;;;;4.45;44.61;101583.88;5371168;26;20952;-71
2024/04/20 05:10:42;;;;;;;1.30;0.20;;;;;;;4.45;45.14;101584.75;5403188;26;20007;-70
2024/04/20 05:13:07;;;;;;;5.30;0.28;;;;;;;4.38;44.95;101589.06;5396452;26;20654;-69
2024/04/20 05:15:33;;;;;;;2.53;0.17;;;;;;;4.46;45.20;101583.03;5403580;26;20415;-69
2024/04/20 05:17:59;;;;;;;1.05;0.20;;;;;;;4.50;45.10;101589.91;5379360;26;20257;-70
2024/04/20 05:20:25;;;;;;;3.17;0.20;;;;;;;4.34;45.79;101615.84;5367337;26;20003;-71
2024/04/20 05:22:50;;;;;;;6.15;0.10;;;;;;;4.40;45.83;101610.66;5389945;26;20066;-70
2024/04/20 05:25:16;;;;;;;4.78;0.25;;;;;;;4.33;46.41;101608.94;5356788;26;20015;-71
2024/04/20 05:27:41;;;;;;;5.07;0.20;;;;;;;4.29;46.98;101603.78;5360227;26;20008;-69
2024/04/20 05:30:07;;;;;;;0.30;0.10;;;;;;;4.23;47.34;101617.59;5392647;26;20019;-71
2024/04/20 05:32:32;;;;;;;1.05;0.30;;;;;;;4.17;47.70;101609.84;5407508;26;20006;-70
2024/04/20 05:34:58;;;;;;;0.93;0.10;;;;;;;4.24;47.77;101614.13;5370009;26;20847;-69
2024/04/20 05:37:23;;;;;;;3.15;0.10;;;;;;;4.37;47.64;101621.00;5391701;26;20002;-71
2024/04/20 05:39:49;;;;;;;1.23;0.20;;;;;;;4.31;48.17;101630.53;5396779;26;20614;-70
2024/04/20 05:42:14;;;;;;;2.45;0.73;;;;;;;4.23;47.99;101633.13;5375516;26;20364;-71
2024/04/20 05:44:40;;;;;;;3.88;0.30;;;;;;;4.15;48.49;101635.72;5402784;26;20720;-73
2024/04/20 05:47:05;;;;;;;4.70;0.60;;;;;;;4.30;48.14;101629.66;5390190;26;20444;-74
2024/04/20 05:49:33;;;;;;;0.68;0.10;;;;;;;4.41;48.21;101638.28;5377647;26;20003;-74
2024/04/20 05:51:59;;;;;;;2.20;0.10;;;;;;;4.49;47.87;101639.97;5360422;26;20002;-69
2024/04/20 05:54:25;;;;;;;1.23;0.10;;;;;;;4.54;47.34;101633.94;5394679;26;20011;-70
2024/04/20 05:56:50;;;;;;;1.33;0.10;;;;;;;4.65;47.24;101636.47;5377601;26;20432;-72
2024/04/20 05:59:16;;;;;;;5.20;0.30;;;;;;;4.68;47.04;101644.25;5391305;26;20002;-71
2024/04/20 06:01:41;;;;;;;0.30;0.10;;;;;;;4.81;47.00;101651.09;5406237;26;20003;-69
2024/04/20 06:04:06;;;;;;;0.60;0.10;;;;;;;4.92;46.45;101655.41;5401889;26;20007;-72
2024/04/20 06:06:32;;;;;;;5.55;0.20;;;;;;;4.68;47.29;101667.56;5404322;26;20783;-70
2024/04/20 06:08:57;;;;;;;0.50;0.20;;;;;;;4.96;46.63;101663.16;5410084;26;20007;-71
2024/04/20 06:11:23;;;;;;;0.75;0.10;;;;;;;4.72;47.55;101663.22;5399201;26;20007;-69
2024/04/20 06:13:48;;;;;;;4.40;0.10;;;;;;;4.65;47.51;101677.91;5390067;26;20328;-69
2024/04/20 06:16:14;;;;;;;2.88;0.20;;;;;;;4.69;47.58;101679.63;5371598;26;20008;-68
2024/04/20 06:18:39;;;;;;;1.23;0.30;;;;;;;4.84;47.64;101679.56;5378106;26;20043;-70
2024/04/20 06:21:05;;;;;;;1.88;0.20;;;;;;;4.93;47.37;101686.50;5357885;26;20048;-70
2024/04/20 06:23:30;;;;;;;1.20;0.10;;;;;;;4.51;47.67;101687.44;5340458;26;20022;-68
2024/04/20 06:25:56;;;;;;;2.03;0.10;;;;;;;4.52;47.68;101691.72;5404035;26;20012;-69
2024/04/20 06:28:21;;;;;;;3.25;0.13;;;;;;;4.34;48.72;101696.09;5381093;26;21726;-69
2024/04/20 06:30:48;;;;;;;0.70;0.05;;;;;;;4.24;48.74;101702.13;5344787;26;20017;-68
2024/04/20 06:33:14;;;;;;;0.35;0.13;;;;;;;4.51;48.15;101698.66;5362575;26;20015;-68
2024/04/20 06:35:39;;;;;;;1.63;0.10;;;;;;;4.63;48.02;101700.34;5363576;26;20085;-67
2024/04/20 06:38:05;;;;;;;1.27;0.15;;;;;;;4.97;47.76;101701.16;5356286;26;20128;-68
2024/04/20 06:40:30;;;;;;;1.67;0.22;;;;;;;4.94;47.67;101710.66;5353218;26;20091;-67
2024/04/20 06:42:56;;;;;;;1.77;0.30;;;;;;;5.04;47.91;101712.38;5337742;26;20015;-69
2024/04/20 06:45:21;;;;;;;0.32;0.20;;;;;;;5.01;47.97;101713.25;5394875;26;20091;-69
2024/04/20 06:47:47;;;;;;;0.85;0.10;;;;;;;4.87;48.64;101708.94;5388045;25;20025;-69
2024/04/20 06:50:17;;;;;;;1.73;0.20;;;;;;;4.60;49.76;101710.72;5386577;26;20046;-69
2024/04/20 06:52:44;;;;;;;0.60;0.20;;;;;;;4.52;50.05;101715.91;5365277;25;20011;-69
2024/04/20 06:55:09;;;;;;;3.20;0.10;;;;;;;5.12;49.50;101714.91;5357066;26;20035;-69
2024/04/20 06:57:35;;;;;;;3.13;0.45;;;;;;;5.54;49.22;101719.03;5392270;26;20006;-69
2024/04/20 07:00:01;;;;;;;1.65;0.35;;;;;;;5.78;48.59;101724.97;5395759;26;20623;-69
2024/04/20 07:02:27;;;;;;;4.65;0.40;;;;;;;5.87;47.92;101722.31;5392950;26;20022;-68
2024/04/20 07:04:55;;;;;;;2.63;0.20;;;;;;;6.24;47.13;101722.06;5358443;25;20093;-68
2024/04/20 07:07:20;;;;;;;2.60;0.20;;;;;;;6.20;46.89;101725.53;5354218;26;20023;-68
2024/04/20 07:09:49;;;;;;;0.28;0.10;;;;;;;6.43;46.01;101728.81;5355820;26;20003;-68
2024/04/20 07:12:15;;;;;;;4.97;0.68;;;;;;;6.14;45.03;101721.25;5352239;26;20061;-69
2024/04/20 07:14:41;;;;;;;0.60;0.13;;;;;;;6.48;44.81;101723.59;5366385;25;20026;-68
2024/04/20 07:17:06;;;;;;;1.25;0.20;;;;;;;6.13;44.83;101726.44;5355427;26;20307;-69
2024/04/20 07:19:32;;;;;;;4.30;0.22;;;;;;;6.30;44.30;101735.00;5349871;26;20016;-69
2024/04/20 07:21:57;;;;;;;0.55;0.10;;;;;;;6.37;43.53;101739.25;5342663;26;20748;-69
2024/04/20 07:24:23;;;;;;;0.98;0.20;;;;;;;6.68;42.15;101738.97;5360630;26;20483;-69
2024/04/20 07:26:48;;;;;;;0.40;0.17;;;;;;;6.80;41.31;101738.88;5371536;26;20013;-69
2024/04/20 07:29:14;;;;;;;1.30;0.10;;;;;;;7.22;41.19;101731.47;5391067;26;20011;-69
2024/04/20 07:31:39;;;;;;;1.05;0.20;;;;;;;7.52;41.19;101738.00;5395428;26;20003;-69
2024/04/20 07:34:04;;;;;;;2.60;0.20;;;;;;;7.79;41.75;101743.75;5392563;26;20738;-69
2024/04/20 07:36:30;;;;;;;4.05;0.88;;;;;;;8.09;40.03;101750.25;5394477;26;20007;-69
2024/04/20 07:38:55;;;;;;;0.90;0.20;;;;;;;8.05;39.51;101751.16;5391575;26;20359;-68
2024/04/20 07:41:21;;;;;;;5.65;2.40;;;;;;;8.06;39.97;101757.22;5399737;26;20014;-69
2024/04/20 07:43:47;;;;;;;0.82;0.38;;;;;;;7.94;38.98;101763.50;5369186;26;20013;-68
2024/04/20 07:46:12;;;;;;;0.93;0.10;;;;;;;7.84;39.59;101767.94;5390417;26;20118;-69
2024/04/20 07:48:38;;;;;;;2.53;0.30;;;;;;;7.85;39.99;101766.22;5373170;26;20042;-68
2024/04/20 07:51:06;;;;;;;3.92;0.95;;;;;;;7.67;39.64;101778.59;5339004;26;19999;-71
2024/04/20 07:53:32;;;;;;;5.28;0.45;;;;;;;7.45;40.72;101777.13;5341939;26;20011;-68
2024/04/20 07:55:57;;;;;;;2.90;0.73;;;;;;;7.07;41.69;101779.28;5338710;26;20801;-68
2024/04/20 07:58:25;;;;;;;2.78;0.20;;;;;;;6.94;41.80;101782.03;5325317;26;20058;-69
2024/04/20 08:00:50;;;;;;;1.00;0.30;;;;;;;7.07;41.87;101783.66;5338945;26;20296;-68
2024/04/20 08:03:17;;;;;;;4.18;0.40;;;;;;;6.81;42.50;101784.75;5350099;26;20023;-68
2024/04/20 08:05:44;;;;;;;1.30;0.50;;;;;;;6.62;42.69;101790.97;5354275;26;20023;-68
2024/04/20 08:08:09;;;;;;;1.55;0.30;;;;;;;7.04;42.08;101794.06;5338228;26;20569;-69
2024/04/20 08:10:35;;;;;;;0.57;0.10;;;;;;;6.82;42.92;101796.88;5359981;26;20573;-69
2024/04/20 08:13:01;;;;;;;3.55;0.20;;;;;;;6.60;42.50;101798.81;5323246;26;21258;-68
2024/04/20 08:15:26;;;;;;;2.45;0.10;;;;;;;6.55;42.23;101800.59;5360456;26;20023;-69
2024/04/20 08:17:51;;;;;;;2.28;0.30;;;;;;;6.73;42.04;101798.69;5354362;26;20058;-68
2024/04/20 08:20:17;;;;;;;2.35;0.20;;;;;;;6.99;41.88;101801.03;5334336;26;20482;-69
2024/04/20 08:22:43;;;;;;;2.85;0.35;;;;;;;7.04;40.52;101799.25;5337416;26;20026;-69
2024/04/20 08:25:08;;;;;;;3.88;0.38;;;;;;;7.22;40.90;101804.28;5339051;26;20010;-69
2024/04/20 08:27:35;;;;;;;2.10;0.20;;;;;;;7.88;39.53;101800.00;5327815;26;20008;-69
2024/04/20 08:30:05;;;;;;;1.13;0.40;;;;;;;8.47;39.40;101806.06;5359881;26;20020;-68
2024/04/20 08:32:30;;;;;;;1.92;0.20;;;;;;;9.83;36.89;101803.53;5362296;26;20576;-68
2024/04/20 08:34:56;;;;;;;0.98;0.30;;;;;;;9.83;35.92;101808.75;5332689;26;20146;-68
2024/04/20 08:37:21;;;;;;;1.60;0.30;;;;;;;9.37;36.07;101811.41;5337589;26;20011;-69
2024/04/20 08:39:47;;;;;;;2.55;0.10;;;;;;;9.65;36.24;101813.44;5346403;26;20027;-69
2024/04/20 08:42:38;;;;;;;2.00;0.38;;;;;;;9.63;36.26;101807.41;5350114;26;20014;-69
2024/04/20 08:45:07;;;;;;;1.42;0.10;;;;;;;9.35;36.47;101818.41;5391451;26;19999;-69
2024/04/20 08:47:34;;;;;;;0.50;0.20;;;;;;;9.51;35.08;101823.31;5381873;26;20010;-69
2024/04/20 08:50:00;;;;;;;1.17;0.30;;;;;;;9.69;35.30;101820.31;5387937;26;20006;-69
2024/04/20 08:52:26;;;;;;;1.20;0.20;;;;;;;8.95;36.04;101828.75;5368066;26;20062;-69
2024/04/20 08:54:53;;;;;;;2.25;0.20;;;;;;;9.08;35.95;101830.25;5385040;26;20050;-68
2024/04/20 08:57:22;;;;;;;0.45;0.10;;;;;;;9.22;34.84;101832.59;5366480;26;20024;-69
2024/04/20 08:59:49;;;;;;;1.90;0.20;;;;;;;9.05;34.34;101835.50;5387101;26;19998;-69
2024/04/20 09:02:21;;;;;;;1.23;0.30;;;;;;;9.57;35.05;101833.66;5369211;26;21128;-69
2024/04/20 09:04:47;;;;;;;3.05;0.15;;;;;;;9.70;34.75;101837.72;5342668;26;20785;-69
2024/04/20 09:07:13;;;;;;;5.30;0.47;;;;;;;10.04;34.13;101841.41;5377919;26;20054;-70
2024/04/20 09:09:39;;;;;;;1.40;0.10;;;;;;;10.61;33.53;101841.75;5374478;26;20080;-70
2024/04/20 09:12:05;;;;;;;2.70;0.93;;;;;;;10.25;33.86;101837.41;5390184;26;20014;-68
2024/04/20 09:14:30;;;;;;;2.92;0.52;;;;;;;10.19;33.71;101838.41;5345622;26;20011;-69
2024/04/20 09:16:56;;;;;;;2.08;0.50;;;;;;;10.63;33.21;101839.94;5374002;26;20015;-69
2024/04/20 09:19:24;;;;;;;2.60;0.10;;;;;;;10.34;33.23;101830.22;5366378;25;20052;-69
2024/04/20 09:21:50;;;;;;;0.70;0.20;;;;;;;11.18;32.81;101842.09;5374969;26;21191;-69
2024/04/20 09:24:16;;;;;;;1.23;0.40;;;;;;;12.13;30.45;101833.22;5354388;26;20020;-69
2024/04/20 09:26:50;;;;;;;2.13;0.20;;;;;;;12.31;29.79;101839.66;5340344;26;20004;-68
2024/04/20 09:29:15;;;;;;;0.77;0.10;;;;;;;11.15;32.66;101850.88;5399235;26;21412;-70
2024/04/20 09:31:48;;;;;;;2.58;0.20;;;;;;;10.45;33.01;101842.19;5380615;26;20009;-69
2024/04/20 09:34:14;;;;;;;0.77;0.10;;;;;;;9.94;34.07;101843.31;5393775;25;20007;-69
2024/04/20 09:36:39;;;;;;;0.43;0.10;;;;;;;9.82;33.29;101841.84;5392790;26;20087;-69
2024/04/20 09:39:06;;;;;;;0.50;0.17;;;;;;;9.76;33.29;101845.41;5393983;26;20025;-70
2024/04/20 09:41:32;;;;;;;4.75;0.25;;;;;;;9.60;33.51;101844.00;5398972;26;19999;-69
2024/04/20 09:44:02;;;;;;;1.80;0.10;;;;;;;9.56;33.96;101852.78;5399527;25;20021;-69
2024/04/20 09:46:32;;;;;;;1.52;0.20;;;;;;;9.79;33.89;101848.00;5399086;26;20022;-70
2024/04/20 09:49:04;;;;;;;1.88;0.10;;;;;;;10.86;31.14;101851.66;5396460;26;20010;-70
2024/04/20 09:51:33;;;;;;;;;;;;;;;11.52;31.49;101852.47;5405488;26;20020;-68
2024/04/20 09:54:09;;;;;;;3.78;0.30;;;;;;;12.29;30.69;101851.06;5396918;26;19924;-69
2024/04/20 09:56:35;;;;;;;2.05;0.20;;;;;;;12.01;30.15;101845.81;5389597;26;19999;-69
2024/04/20 09:59:03;;;;;;;2.15;0.20;;;;;;;12.46;28.16;101850.50;5399321;26;20018;-69
2024/04/20 10:01:28;;;;;;;0.32;0.05;;;;;;;11.04;31.06;101856.41;5409113;26;20024;-69
2024/04/20 10:03:56;;;;;;;3.13;0.57;;;;;;;10.63;34.23;101862.63;5368032;26;21671;-69
2024/04/20 10:06:22;;;;;;;1.77;0.40;;;;;;;9.90;34.84;101857.34;5396201;26;20003;-70
2024/04/20 10:08:49;;;;;;;1.63;0.10;;;;;;;9.65;35.09;101857.81;5400343;25;20457;-69
2024/04/20 10:11:16;;;;;;;6.60;0.43;;;;;;;9.31;37.51;101868.94;5403457;26;20064;-69
2024/04/20 10:13:43;;;;;;;2.65;0.30;;;;;;;9.48;36.40;101862.53;5381168;26;20032;-70
2024/04/20 10:16:10;;;;;;;1.67;0.47;;;;;;;9.31;36.33;101868.06;5359905;26;20031;-69
2024/04/20 10:18:38;;;;;;;1.10;0.20;;;;;;;8.97;37.43;101871.28;5364440;26;20003;-68
2024/04/20 10:21:04;;;;;;;2.25;0.40;;;;;;;9.39;37.34;101866.19;5358798;26;20008;-69
2024/04/20 10:23:30;;;;;;;0.70;0.28;;;;;;;9.55;37.33;101866.75;5366163;26;20022;-69
2024/04/20 10:25:55;;;;;;;0.52;0.28;;;;;;;10.19;37.16;101860.19;5362841;26;20000;-69
2024/04/20 10:28:24;;;;;;;1.17;0.35;;;;;;;11.12;35.19;101863.19;5363819;25;20092;-69
2024/04/20 10:30:59;;;;;;;0.52;0.20;;;;;;;11.39;34.73;101872.88;5382381;26;20035;-69
2024/04/20 10:33:26;;;;;;;1.17;0.28;;;;;;;11.95;33.42;101864.34;5385252;26;20015;-69
2024/04/20 10:36:06;;;;;;;2.55;0.40;;;;;;;11.67;33.49;101865.13;5368227;26;20361;-69
2024/04/20 10:38:32;;;;;;;1.77;0.20;;;;;;;10.56;34.86;101867.16;5381723;26;20048;-69
2024/04/20 10:41:12;;;;;;;0.73;0.30;;;;;;;10.78;34.37;101867.47;5385049;26;21887;-69
2024/04/20 10:43:38;;;;;;;0.68;0.13;;;;;;;11.08;33.41;101861.53;5408531;26;20030;-71
2024/04/20 10:46:05;;;;;;;5.90;0.20;;;;;;;12.16;34.12;101865.47;5422377;26;20018;-69
2024/04/20 10:48:34;;;;;;;4.07;0.30;;;;;;;12.88;31.82;101867.53;5422038;25;20011;-69
2024/04/20 10:51:02;;;;;;;1.00;0.20;;;;;;;12.81;31.83;101868.66;5404818;26;22233;-69
2024/04/20 10:53:28;;;;;;;0.55;0.32;;;;;;;12.17;31.38;101871.56;5394730;25;20017;-68
2024/04/20 10:55:56;;;;;;;2.30;0.10;;;;;;;11.51;32.94;101876.06;5427205;26;20002;-69
2024/04/20 10:58:26;;;;;;;1.27;0.38;;;;;;;10.64;34.33;101885.28;5389296;26;20015;-70
2024/04/20 11:00:57;;;;;;;0.30;0.10;;;;;;;10.79;33.62;101882.28;5405726;26;20025;-69
2024/04/20 11:03:24;;;;;;;0.20;0.05;;;;;;;10.52;32.63;101886.41;5416158;26;20018;-69
2024/04/20 11:05:57;;;;;;;1.00;0.30;;;;;;;10.36;32.69;101885.06;5399902;26;20000;-69
2024/04/20 11:08:24;;;;;;;3.03;0.50;;;;;;;10.32;33.66;101880.78;5348152;26;20015;-69
2024/04/20 11:11:03;;;;;;;1.10;0.20;;;;;;;9.87;34.42;101884.38;5373114;26;20528;-70
2024/04/20 11:13:29;;;;;;;2.53;0.50;;;;;;;9.78;34.62;101888.00;5390954;26;19999;-68
2024/04/20 11:15:57;;;;;;;0.63;0.28;;;;;;;9.65;34.92;101890.91;5399267;26;20011;-69
2024/04/20 11:18:23;;;;;;;1.05;0.10;;;;;;;9.57;36.19;101885.84;5394585;26;20100;-69
2024/04/20 11:20:49;;;;;;;1.85;0.10;;;;;;;9.48;36.18;101897.31;5400176;26;20003;-68
2024/04/20 11:23:17;;;;;;;0.77;0.10;;;;;;;9.38;36.11;101899.22;5403266;26;20019;-69
2024/04/20 11:25:50;;;;;;;2.10;0.10;;;;;;;9.71;35.14;101890.78;5382887;26;20378;-69
2024/04/20 11:28:16;;;;;;;0.77;0.20;;;;;;;9.92;35.54;101894.72;5364639;26;20017;-69